Форум клана ЧПУшников

Информация о пользователе

Привет, Гость! Войдите или зарегистрируйтесь.


Вы здесь » Форум клана ЧПУшников » Лазерные станки


Лазерные станки

Тем 321 страница 400 из 486

Тема Ответов Просмотров Последнее сообщение
6 553 19-07-2016 20:00:25  YuSTas
2 114 18-07-2016 10:25:53  byshaeva
81 2469 17-07-2016 11:06:33  Сергей Кравчик
2 255 09-07-2016 14:27:04  Killa312
11 581 07-07-2016 15:18:42  Hotory
25 694 27-06-2016 21:44:32  Salon-max
38 2080 27-06-2016 05:30:23  Юрецкий
14 429 26-06-2016 11:49:07  Quark
48 1248 24-06-2016 20:06:01  Иван1985
9 629 24-06-2016 19:54:50  Иван1985
16 670 24-06-2016 15:25:23  Sergey AA
2 118 24-06-2016 12:14:53  messer1988
8 480 22-06-2016 15:04:25  Sergey AA
8 924 16-06-2016 22:36:09  megagad
204 18001 12-06-2016 11:02:33  Andrey55
4 236 06-06-2016 09:19:33  Zmeei
24 913 02-06-2016 16:29:32  Sofka
16 385 02-06-2016 09:43:13  ilcomp
3 149 31-05-2016 11:04:49  SmileCat
14 475 29-05-2016 10:38:37  Neudrums
19 942 28-05-2016 00:03:48  Sborka
19 240 25-05-2016 12:15:46  Mikky
8 408 24-05-2016 15:31:24  sonr
21 2310 23-05-2016 23:42:46  Avel
345 Волнистый рез  angrydemon
4 236 23-05-2016 17:44:30  YuSTas
2 124 05-05-2016 11:02:05  Kuz
7 434 04-05-2016 01:16:19  snowman
10 325 28-04-2016 20:21:01  Kirian
1 150 28-04-2016 19:58:34  Kirian
37 1115 28-04-2016 14:14:04  neotex
3 616 27-04-2016 20:39:04  andrey_e
6 288 27-04-2016 16:16:09  denisej
353 Reci s2  Neudrums
35 897 26-04-2016 21:17:31  Элинка
5 478 25-04-2016 16:52:18  MPN
15 1371 23-04-2016 22:53:06  Sokrat
9 535 23-04-2016 17:45:11  Tab
35 1054 23-04-2016 13:05:00  Valera5609
20 741 21-04-2016 12:48:47  Silmaril
18 1033 21-04-2016 12:07:58  f.laser
1 168 17-04-2016 23:10:04  megagad
361 Резка с углекислотой  Виктор Краски
23 741 17-04-2016 08:59:55  Flint2015
13 1863 15-04-2016 11:34:20  ImageLaser
11 296 11-04-2016 14:35:21  MaxMaster
13 381 09-04-2016 20:30:46  aldushin
5 277 06-04-2016 17:28:09  daguss
991 94843 29-03-2016 17:50:18  sva-don
367 Закрыта Резко упала мощность  Neudrums
10 334 24-03-2016 00:59:57  Neudrums
5 434 22-03-2016 20:12:39  Дилик
19 1875 16-03-2016 23:19:45  Falcor
370 Прошу помощи.  Назар
5 316 16-03-2016 09:51:09  Назар
8 240 14-03-2016 16:51:53  Расулыч
7 422 10-03-2016 20:36:59  chirik
5 748 07-03-2016 20:32:32  Flint2015
19 1722 04-03-2016 17:27:39  Airside
4 196 29-02-2016 22:43:44  nikson
5 174 27-02-2016 08:50:26  Flint2015
377 Тестирование размера реза  Виктор Краски
9 474 26-02-2016 16:55:55  daguss
378 кривая резка  Восходник
17 489 26-02-2016 00:06:30  semerochka
80 5970 22-02-2016 20:51:36  Kinetic
17 949 22-02-2016 12:02:26  Kinetic
5 591 14-02-2016 15:24:59  gabber
7 419 14-02-2016 12:43:54  Zippo
12 378 12-02-2016 17:15:38  Yaroslavl
2 207 12-02-2016 10:23:44  Администратор
22 882 07-02-2016 15:27:40  Imobile
6 322 28-01-2016 17:09:21  StarPOM
25 970 26-01-2016 15:23:58  Zippo
16 687 15-01-2016 04:57:58  Tauhuh
3 241 07-01-2016 00:45:42  okruk
4 244 05-01-2016 10:25:43  markaru
391 Нужна помощь специалистов!  Мастер на все руки
30 1291 02-01-2016 20:05:38  racon75
7 207 24-12-2015 12:08:34  lexus80
22 2474 21-12-2015 14:22:31  Kuz
14 368 14-12-2015 15:59:50  YuSTas
8 332 12-12-2015 20:20:10  Shamankiller
15 573 12-12-2015 18:02:39  racon75
38 926 08-12-2015 23:46:50  asor
35 899 08-12-2015 18:35:57  dm6
8 361 07-12-2015 21:25:28  Dimon
25 907 04-12-2015 21:36:10  Silmaril

Вы здесь » Форум клана ЧПУшников » Лазерные станки